createdAt,value
2018-12-17T00:03:36.835Z,9.87
2018-12-17T00:08:46.306Z,10.97
2018-12-17T00:13:55.821Z,7.53
2018-12-17T00:19:05.230Z,10.67
2018-12-17T00:24:14.553Z,11.87
2018-12-17T00:29:24.093Z,12.67
2018-12-17T00:34:33.518Z,11.13
2018-12-17T00:39:42.915Z,8.27
2018-12-17T00:44:52.293Z,11.30
2018-12-17T00:50:01.824Z,10.83
2018-12-17T00:55:11.392Z,11.17
2018-12-17T01:00:21.254Z,10.90
2018-12-17T01:05:30.659Z,10.00
2018-12-17T01:10:40.102Z,11.30
2018-12-17T01:15:49.500Z,9.57
2018-12-17T01:20:58.837Z,9.53
2018-12-17T01:26:08.901Z,9.37
2018-12-17T01:31:18.353Z,8.77
2018-12-17T01:36:27.852Z,8.30
2018-12-17T01:41:37.215Z,8.27
2018-12-17T01:46:46.564Z,9.17
2018-12-17T01:51:55.977Z,8.10
2018-12-17T01:57:05.637Z,9.07
2018-12-17T02:02:15.269Z,8.07
2018-12-17T02:07:24.630Z,9.13
2018-12-17T02:12:35.841Z,8.40
2018-12-17T02:17:45.401Z,7.73
2018-12-17T02:22:54.768Z,7.90
2018-12-17T02:28:04.130Z,9.03
2018-12-17T02:33:13.596Z,8.90
2018-12-17T02:38:22.985Z,8.60
2018-12-17T02:43:32.352Z,9.43
2018-12-17T02:48:42.465Z,10.47
2018-12-17T02:53:52.030Z,8.27
2018-12-17T02:59:01.426Z,8.57
2018-12-17T03:04:10.791Z,7.10
2018-12-17T03:09:20.134Z,7.67
2018-12-17T03:14:29.614Z,7.60
2018-12-17T03:19:39.014Z,6.57
2018-12-17T03:24:48.581Z,7.50
2018-12-17T03:29:58.026Z,7.43
2018-12-17T03:35:07.473Z,7.27
2018-12-17T03:40:16.883Z,7.40
2018-12-17T03:45:26.289Z,7.70
2018-12-17T03:50:35.614Z,6.93
2018-12-17T03:55:44.993Z,5.13
2018-12-17T04:00:54.322Z,6.97
2018-12-17T04:06:03.655Z,5.27
2018-12-17T04:11:12.983Z,5.50
2018-12-17T04:16:22.335Z,5.07
2018-12-17T04:21:31.854Z,4.93
2018-12-17T04:26:41.781Z,4.77
2018-12-17T04:31:51.058Z,4.70
2018-12-17T04:37:00.457Z,5.30
2018-12-17T04:42:09.846Z,4.87
2018-12-17T04:47:19.260Z,4.97
2018-12-17T04:52:28.677Z,4.53
2018-12-17T04:57:38.483Z,4.70
2018-12-17T05:02:48.001Z,4.97
2018-12-17T05:07:57.338Z,3.83
2018-12-17T05:13:06.865Z,5.10
2018-12-17T05:18:16.277Z,5.57
2018-12-17T05:23:25.726Z,3.97
2018-12-17T05:28:35.096Z,4.60
2018-12-17T05:33:44.458Z,5.93
2018-12-17T05:38:54.014Z,5.27
2018-12-17T05:44:03.351Z,6.63
2018-12-17T05:49:12.800Z,6.23
2018-12-17T05:54:22.309Z,5.97
2018-12-17T05:59:31.674Z,5.73
2018-12-17T06:04:41.122Z,5.23
2018-12-17T06:09:50.525Z,5.53
2018-12-17T06:15:00.026Z,6.03
2018-12-17T06:20:09.621Z,5.03
2018-12-17T06:25:19.155Z,6.33
2018-12-17T06:30:28.519Z,6.10
2018-12-17T06:35:37.902Z,6.53
2018-12-17T06:40:47.235Z,5.53
2018-12-17T06:45:56.597Z,6.10
2018-12-17T06:51:06.074Z,8.03
2018-12-17T06:56:15.638Z,7.20
2018-12-17T07:01:25.122Z,7.40
2018-12-17T07:06:34.748Z,9.53
2018-12-17T07:11:44.101Z,8.50
2018-12-17T07:16:53.599Z,9.33
2018-12-17T07:22:02.977Z,9.13
2018-12-17T07:27:12.464Z,10.47
2018-12-17T07:32:22.021Z,9.53
2018-12-17T07:37:31.578Z,10.07
2018-12-17T07:42:41.061Z,11.50
2018-12-17T07:47:50.450Z,11.50
2018-12-17T07:52:59.774Z,13.33
2018-12-17T07:58:09.164Z,12.47
2018-12-17T08:03:18.709Z,13.73
2018-12-17T08:08:35.175Z,11.97
2018-12-17T08:13:39.610Z,9.80
2018-12-17T08:18:49.824Z,11.20
2018-12-17T08:23:59.586Z,8.90
2018-12-17T08:29:09.031Z,9.53
2018-12-17T08:34:18.977Z,10.70
2018-12-17T08:39:28.466Z,10.50
2018-12-17T08:44:38.186Z,10.97
2018-12-17T08:49:47.636Z,8.97
2018-12-17T08:54:57.091Z,11.13
2018-12-17T09:00:10.982Z,8.90
2018-12-17T09:05:19.209Z,8.40
2018-12-17T09:10:28.698Z,8.63
2018-12-17T09:15:38.070Z,8.33
2018-12-17T09:20:47.475Z,8.17
2018-12-17T09:25:56.830Z,8.03
2018-12-17T09:31:06.437Z,7.67
2018-12-17T09:36:15.793Z,8.37
2018-12-17T09:41:25.162Z,7.50
2018-12-17T09:46:34.665Z,7.13
2018-12-17T09:51:44.161Z,7.53
2018-12-17T09:56:53.502Z,7.70
2018-12-17T10:02:02.945Z,7.77
2018-12-17T10:07:12.513Z,7.97
2018-12-17T10:12:21.850Z,7.43
2018-12-17T10:17:31.289Z,8.23
2018-12-17T10:22:41.678Z,7.87
2018-12-17T10:27:51.229Z,7.27
2018-12-17T10:33:00.625Z,8.13
2018-12-17T10:38:10.052Z,7.40
2018-12-17T10:43:19.427Z,8.37
2018-12-17T10:48:28.894Z,6.73
2018-12-17T10:53:38.441Z,9.00
2018-12-17T10:58:47.818Z,10.67
2018-12-17T11:04:04.289Z,8.50
2018-12-17T11:09:13.743Z,9.93
2018-12-17T11:14:23.358Z,9.47
2018-12-17T11:19:32.830Z,9.13
2018-12-17T11:24:42.343Z,10.37
2018-12-17T11:29:51.722Z,7.90
2018-12-17T11:35:01.374Z,10.97
2018-12-17T11:40:11.006Z,7.67
2018-12-17T11:45:20.529Z,6.60
2018-12-17T11:50:30.002Z,7.97
2018-12-17T11:55:39.521Z,7.57
2018-12-17T12:00:54.224Z,8.63
2018-12-17T12:06:04.094Z,8.50
2018-12-17T12:11:13.595Z,7.57
2018-12-17T12:16:23.118Z,8.57
2018-12-17T12:21:32.494Z,7.73
2018-12-17T12:26:42.149Z,6.03
2018-12-17T12:31:51.740Z,7.17
2018-12-17T12:37:01.394Z,7.80
2018-12-17T12:42:10.777Z,7.60
2018-12-17T12:47:20.273Z,8.00
2018-12-17T12:52:29.665Z,8.53
2018-12-17T12:57:39.066Z,8.63
2018-12-17T13:02:48.699Z,8.53
2018-12-17T13:07:58.285Z,7.57
2018-12-17T13:13:07.824Z,6.50
2018-12-17T13:18:17.408Z,4.70
2018-12-17T13:23:27.004Z,6.53
2018-12-17T13:28:36.930Z,4.53
2018-12-17T13:33:46.501Z,4.40
2018-12-17T13:38:56.078Z,4.10
2018-12-17T13:44:05.609Z,5.80
2018-12-17T13:49:15.129Z,5.43
2018-12-17T13:54:24.710Z,5.70
2018-12-17T13:59:34.098Z,5.43
2018-12-17T14:04:43.482Z,5.20
2018-12-17T14:09:58.262Z,5.20
2018-12-17T14:15:07.790Z,4.57
2018-12-17T14:20:22.662Z,4.80
2018-12-17T14:25:32.047Z,3.90
2018-12-17T14:30:41.547Z,4.93
2018-12-17T14:35:56.637Z,5.27
2018-12-17T14:41:06.326Z,4.70
2018-12-17T14:46:15.642Z,5.10
2018-12-17T14:51:25.005Z,5.77
2018-12-17T14:56:34.407Z,4.73
2018-12-17T15:01:43.818Z,4.80
2018-12-17T15:06:53.358Z,7.43
2018-12-17T15:12:02.878Z,5.80
2018-12-17T15:17:12.215Z,5.53
2018-12-17T15:22:21.742Z,4.40
2018-12-17T15:27:31.371Z,5.10
2018-12-17T15:32:40.933Z,4.80
2018-12-17T15:37:50.250Z,5.57
2018-12-17T15:42:59.625Z,4.73
2018-12-17T15:48:08.965Z,4.90
2018-12-17T15:53:18.742Z,4.37
2018-12-17T15:58:28.106Z,5.33
2018-12-17T16:03:37.638Z,5.50
2018-12-17T16:08:47.078Z,6.27
2018-12-17T16:13:56.504Z,5.03
2018-12-17T16:19:05.978Z,5.83
2018-12-17T16:24:15.503Z,5.80
2018-12-17T16:29:24.926Z,5.83
2018-12-17T16:34:34.700Z,5.33
2018-12-17T16:39:44.107Z,5.63
2018-12-17T16:44:53.453Z,7.43
2018-12-17T16:50:03.938Z,6.50
2018-12-17T16:55:13.982Z,7.20
2018-12-17T17:00:23.581Z,8.00
2018-12-17T17:05:33.144Z,7.60
2018-12-17T17:10:42.493Z,4.33
2018-12-17T17:15:53.157Z,7.60
2018-12-17T17:21:02.501Z,6.40
2018-12-17T17:26:11.902Z,7.23
2018-12-17T17:31:21.242Z,6.57
2018-12-17T17:36:30.778Z,5.23
2018-12-17T17:41:40.360Z,6.90
2018-12-17T17:46:50.025Z,8.37
2018-12-17T17:51:59.626Z,8.13
2018-12-17T17:57:09.081Z,6.03
2018-12-17T18:02:18.951Z,10.73
2018-12-17T18:07:28.606Z,10.20
2018-12-17T18:12:38.065Z,10.80
2018-12-17T18:17:47.478Z,10.63
2018-12-17T18:22:56.886Z,9.37
2018-12-17T18:28:06.285Z,9.20
2018-12-17T18:33:15.724Z,9.17
2018-12-17T18:38:25.161Z,10.67
2018-12-17T18:43:34.634Z,10.63
2018-12-17T18:48:44.211Z,8.03
2018-12-17T18:53:53.927Z,10.57
2018-12-17T18:59:03.604Z,11.53
2018-12-17T19:04:12.906Z,9.60
2018-12-17T19:09:22.302Z,11.20
2018-12-17T19:14:31.760Z,11.07
2018-12-17T19:19:41.246Z,10.87
2018-12-17T19:24:50.773Z,11.83
2018-12-17T19:30:00.255Z,11.80
2018-12-17T19:35:09.841Z,10.90
2018-12-17T19:40:19.426Z,12.43
2018-12-17T19:45:28.723Z,10.93
2018-12-17T19:50:38.301Z,11.33
2018-12-17T19:55:47.880Z,10.83
2018-12-17T20:00:57.458Z,11.43
2018-12-17T20:06:07.022Z,11.73
2018-12-17T20:11:16.538Z,11.57
2018-12-17T20:16:26.163Z,10.23
2018-12-17T20:21:35.542Z,11.00
2018-12-17T20:26:45.097Z,9.67
2018-12-17T20:31:54.722Z,9.03
2018-12-17T20:37:04.145Z,10.50
2018-12-17T20:42:13.790Z,10.17
2018-12-17T20:47:23.151Z,10.73
2018-12-17T20:52:32.633Z,10.43
2018-12-17T20:57:41.988Z,11.83
2018-12-17T21:02:51.599Z,11.23
2018-12-17T21:08:01.234Z,10.53
2018-12-17T21:13:10.646Z,13.03
2018-12-17T21:18:20.041Z,10.63
2018-12-17T21:23:30.154Z,10.00
2018-12-17T21:28:39.596Z,10.07
2018-12-17T21:33:49.030Z,9.57
2018-12-17T21:38:58.392Z,8.60
2018-12-17T21:44:07.767Z,7.60
2018-12-17T21:49:17.181Z,7.43
2018-12-17T21:54:26.736Z,9.27
2018-12-17T21:59:36.248Z,9.67
2018-12-17T22:04:45.590Z,10.17
2018-12-17T22:09:55.021Z,10.10
2018-12-17T22:15:05.324Z,9.30
2018-12-17T22:20:14.769Z,7.40
2018-12-17T22:25:24.105Z,8.77
2018-12-17T22:30:33.452Z,8.83
2018-12-17T22:35:42.905Z,6.80
2018-12-17T22:40:52.369Z,8.30
2018-12-17T22:46:02.361Z,6.13
2018-12-17T22:51:11.954Z,7.33
2018-12-17T22:56:21.473Z,7.93
2018-12-17T23:01:31.030Z,8.60
2018-12-17T23:06:40.418Z,8.47
2018-12-17T23:12:06.722Z,7.50
2018-12-17T23:17:27.405Z,8.73
2018-12-17T23:22:38.969Z,8.50
2018-12-17T23:27:51.014Z,7.83
2018-12-17T23:33:00.462Z,7.47
2018-12-17T23:38:09.842Z,8.23
2018-12-17T23:43:19.402Z,8.07
2018-12-17T23:48:28.915Z,7.50
2018-12-17T23:53:38.441Z,8.33
2018-12-17T23:58:47.842Z,8.70
